Southlake, Texas
Current Conditions -  °F | °C
As of 1:53 PM on Monday 22 Dec 2014 (Local Time) from KDFW Reporting Station
Broken Clouds Broken Clouds  
Wind Chill: 62°   Ceiling: 25000
Heat Index: 62°   Visibility: 10mi
Dew Point: 44°   Wind: 15mph
Humidity: 52%   Direction: 290°WNW
Pressure: 29.56"   Gusts: NA
Location:  32.95°N, 97.13°W
Report Text: KDFW 221953Z 29013KT 10SM BKN250 17/07 A2956 RMK AO2 SLP004 T01670067
Loading
Personal Weather Stations






























Interactive Weather Map New forecast layout! Learn more

10-Day Weather Forecast

Advertisements
Track Severe Weather on mobile